Monroe City, Missouri
Current Conditions -  °F | °C
As of 12:55 PM on Tuesday 21 Oct 2014 (Local Time) from KHAE Reporting Station
Haze Haze  
Wind Chill: 66°   Ceiling: Unl
Heat Index: 66°   Visibility: 4mi
Dew Point: 37°   Wind: 3mph
Humidity: 35%   Direction: 30°NNE
Pressure: 30.15"   Gusts: NA
Location:  39.65°N, 91.73°W
Report Text: KHAE 211755Z AUTO 03003KT 4SM HZ CLR 19/03 A3015 RMK AO2
Loading
Personal Weather Stations






























Interactive Weather Map
Tropical Storm Tracking
New forecast layout! Learn more

10-Day Weather Forecast

Advertisements
Track Severe Weather on mobile